Terminal Aerodrome Forecast
Issued by NWS Quad Cities IA IL

Home | Current Version | Previous Version | Text Only | Print | Product List | Glossary On
Versions: 1 2 3 4 5 6 7 8 9 10 11 12 13 14 15 16 17 18 19
000
FTUS43 KDVN 251400 AAB
TAFMLI
TAF AMD
KMLI 251401Z 2514/2612 16010KT P6SM VCTS BKN100CB
      TEMPO 2514/2516 3SM TSRA BKN040CB
     FM251800 18012G19KT P6SM SCT035
     FM260000 17010KT P6SM SCT040=

USA.gov is the U.S. government's official web portal to all federal, state and local government web resources and services.